sensor_id;sensor_type;location;lat;lon;timestamp;P1;durP1;ratioP1;P2;durP2;ratioP2
64291;SDS011;50628;51.008;13.658;2022-07-23T00:00:14;5.55;;;2.80;;
64291;SDS011;50628;51.008;13.658;2022-07-23T00:05:17;4.43;;;3.08;;
64291;SDS011;50628;51.008;13.658;2022-07-23T00:10:18;3.47;;;2.65;;
64291;SDS011;50628;51.008;13.658;2022-07-23T00:15:21;4.70;;;2.70;;
64291;SDS011;50628;51.008;13.658;2022-07-23T00:20:23;3.22;;;2.72;;
64291;SDS011;50628;51.008;13.658;2022-07-23T00:25:26;2.72;;;2.53;;
64291;SDS011;50628;51.008;13.658;2022-07-23T00:30:30;5.43;;;3.25;;
64291;SDS011;50628;51.008;13.658;2022-07-23T00:35:33;3.53;;;2.88;;
64291;SDS011;50628;51.008;13.658;2022-07-23T00:40:36;3.50;;;3.17;;
64291;SDS011;50628;51.008;13.658;2022-07-23T00:45:40;7.15;;;3.60;;
64291;SDS011;50628;51.008;13.658;2022-07-23T00:50:42;9.13;;;3.10;;
64291;SDS011;50628;51.008;13.658;2022-07-23T00:55:44;3.75;;;3.42;;
64291;SDS011;50628;51.008;13.658;2022-07-23T01:00:47;5.57;;;2.90;;
64291;SDS011;50628;51.008;13.658;2022-07-23T01:05:49;4.00;;;2.83;;
64291;SDS011;50628;51.008;13.658;2022-07-23T01:10:51;4.90;;;3.60;;
64291;SDS011;50628;51.008;13.658;2022-07-23T01:15:54;3.35;;;3.05;;
64291;SDS011;50628;51.008;13.658;2022-07-23T01:20:56;5.65;;;3.88;;
64291;SDS011;50628;51.008;13.658;2022-07-23T01:26:00;5.18;;;3.92;;
64291;SDS011;50628;51.008;13.658;2022-07-23T01:31:02;5.30;;;3.63;;
64291;SDS011;50628;51.008;13.658;2022-07-23T01:36:08;5.38;;;3.70;;
64291;SDS011;50628;51.008;13.658;2022-07-23T01:41:12;5.05;;;3.25;;
64291;SDS011;50628;51.008;13.658;2022-07-23T01:46:13;6.10;;;3.55;;
64291;SDS011;50628;51.008;13.658;2022-07-23T01:51:19;3.55;;;3.10;;
64291;SDS011;50628;51.008;13.658;2022-07-23T01:56:32;3.60;;;3.30;;
64291;SDS011;50628;51.008;13.658;2022-07-23T02:01:34;6.22;;;3.92;;
64291;SDS011;50628;51.008;13.658;2022-07-23T02:06:37;4.47;;;3.17;;
64291;SDS011;50628;51.008;13.658;2022-07-23T02:11:40;8.65;;;3.58;;
64291;SDS011;50628;51.008;13.658;2022-07-23T02:16:42;5.05;;;3.60;;
64291;SDS011;50628;51.008;13.658;2022-07-23T02:21:44;8.05;;;3.67;;
64291;SDS011;50628;51.008;13.658;2022-07-23T02:26:47;7.53;;;3.50;;
64291;SDS011;50628;51.008;13.658;2022-07-23T02:31:49;3.80;;;3.50;;
64291;SDS011;50628;51.008;13.658;2022-07-23T02:36:50;5.18;;;3.30;;
64291;SDS011;50628;51.008;13.658;2022-07-23T02:41:54;5.55;;;2.95;;
64291;SDS011;50628;51.008;13.658;2022-07-23T02:46:55;3.40;;;3.05;;
64291;SDS011;50628;51.008;13.658;2022-07-23T02:51:57;3.70;;;3.40;;
64291;SDS011;50628;51.008;13.658;2022-07-23T02:57:02;3.67;;;3.33;;
64291;SDS011;50628;51.008;13.658;2022-07-23T03:02:04;5.32;;;3.40;;
64291;SDS011;50628;51.008;13.658;2022-07-23T03:07:05;4.95;;;3.58;;
64291;SDS011;50628;51.008;13.658;2022-07-23T03:12:09;3.60;;;3.30;;
64291;SDS011;50628;51.008;13.658;2022-07-23T03:17:10;3.22;;;3.00;;
64291;SDS011;50628;51.008;13.658;2022-07-23T03:22:12;5.53;;;3.13;;
64291;SDS011;50628;51.008;13.658;2022-07-23T03:27:15;6.75;;;3.50;;
64291;SDS011;50628;51.008;13.658;2022-07-23T03:32:17;4.28;;;3.55;;
64291;SDS011;50628;51.008;13.658;2022-07-23T03:37:19;4.30;;;3.97;;
64291;SDS011;50628;51.008;13.658;2022-07-23T03:42:23;5.28;;;3.50;;
64291;SDS011;50628;51.008;13.658;2022-07-23T03:47:25;5.93;;;3.60;;
64291;SDS011;50628;51.008;13.658;2022-07-23T03:52:26;5.03;;;4.07;;
64291;SDS011;50628;51.008;13.658;2022-07-23T03:57:30;4.28;;;3.85;;
64291;SDS011;50628;51.008;13.658;2022-07-23T04:02:32;6.78;;;3.83;;
64291;SDS011;50628;51.008;13.658;2022-07-23T04:07:34;4.45;;;3.75;;
64291;SDS011;50628;51.008;13.658;2022-07-23T04:12:37;4.43;;;3.70;;
64291;SDS011;50628;51.008;13.658;2022-07-23T04:17:39;3.88;;;3.58;;
64291;SDS011;50628;51.008;13.658;2022-07-23T04:22:41;3.83;;;3.53;;
64291;SDS011;50628;51.008;13.658;2022-07-23T04:27:44;6.88;;;3.17;;
64291;SDS011;50628;51.008;13.658;2022-07-23T04:32:46;3.92;;;3.58;;
64291;SDS011;50628;51.008;13.658;2022-07-23T04:37:55;3.70;;;3.40;;
64291;SDS011;50628;51.008;13.658;2022-07-23T04:42:59;3.55;;;2.90;;
64291;SDS011;50628;51.008;13.658;2022-07-23T04:48:01;4.43;;;3.47;;
64291;SDS011;50628;51.008;13.658;2022-07-23T04:53:04;5.75;;;4.05;;
64291;SDS011;50628;51.008;13.658;2022-07-23T04:58:08;4.35;;;3.53;;
64291;SDS011;50628;51.008;13.658;2022-07-23T05:03:10;5.82;;;2.88;;
64291;SDS011;50628;51.008;13.658;2022-07-23T05:08:12;4.07;;;3.08;;
64291;SDS011;50628;51.008;13.658;2022-07-23T05:13:17;3.65;;;3.35;;
64291;SDS011;50628;51.008;13.658;2022-07-23T05:18:19;3.50;;;3.20;;
64291;SDS011;50628;51.008;13.658;2022-07-23T05:23:21;4.22;;;3.92;;
64291;SDS011;50628;51.008;13.658;2022-07-23T05:28:25;5.40;;;3.67;;
64291;SDS011;50628;51.008;13.658;2022-07-23T05:33:28;4.30;;;3.65;;
64291;SDS011;50628;51.008;13.658;2022-07-23T05:38:31;4.70;;;3.90;;
64291;SDS011;50628;51.008;13.658;2022-07-23T05:43:35;3.85;;;3.53;;
64291;SDS011;50628;51.008;13.658;2022-07-23T05:48:43;4.88;;;4.00;;
64291;SDS011;50628;51.008;13.658;2022-07-23T05:54:11;5.18;;;3.45;;
64291;SDS011;50628;51.008;13.658;2022-07-23T05:59:15;4.47;;;4.07;;
64291;SDS011;50628;51.008;13.658;2022-07-23T06:04:16;6.72;;;4.53;;
64291;SDS011;50628;51.008;13.658;2022-07-23T06:09:29;4.82;;;4.40;;
64291;SDS011;50628;51.008;13.658;2022-07-23T06:14:32;5.90;;;5.28;;
64291;SDS011;50628;51.008;13.658;2022-07-23T06:19:34;8.27;;;6.30;;
64291;SDS011;50628;51.008;13.658;2022-07-23T06:24:36;6.50;;;5.93;;
64291;SDS011;50628;51.008;13.658;2022-07-23T06:29:39;7.55;;;6.00;;
64291;SDS011;50628;51.008;13.658;2022-07-23T06:34:41;7.20;;;6.50;;
64291;SDS011;50628;51.008;13.658;2022-07-23T06:39:43;8.55;;;6.22;;
64291;SDS011;50628;51.008;13.658;2022-07-23T06:44:46;9.40;;;6.55;;
64291;SDS011;50628;51.008;13.658;2022-07-23T06:49:50;6.80;;;6.10;;
64291;SDS011;50628;51.008;13.658;2022-07-23T06:54:52;6.57;;;5.53;;
64291;SDS011;50628;51.008;13.658;2022-07-23T06:59:55;8.80;;;6.93;;
64291;SDS011;50628;51.008;13.658;2022-07-23T07:04:57;6.07;;;5.43;;
64291;SDS011;50628;51.008;13.658;2022-07-23T07:10:01;6.70;;;5.20;;
64291;SDS011;50628;51.008;13.658;2022-07-23T07:15:05;7.07;;;5.60;;
64291;SDS011;50628;51.008;13.658;2022-07-23T07:20:08;7.13;;;5.47;;
64291;SDS011;50628;51.008;13.658;2022-07-23T07:25:10;7.28;;;5.30;;
64291;SDS011;50628;51.008;13.658;2022-07-23T07:30:13;6.55;;;5.82;;
64291;SDS011;50628;51.008;13.658;2022-07-23T07:35:15;7.95;;;5.82;;
64291;SDS011;50628;51.008;13.658;2022-07-23T07:40:17;6.75;;;5.30;;
64291;SDS011;50628;51.008;13.658;2022-07-23T07:45:22;8.38;;;5.10;;
64291;SDS011;50628;51.008;13.658;2022-07-23T07:50:24;7.97;;;6.38;;
64291;SDS011;50628;51.008;13.658;2022-07-23T07:55:26;7.60;;;5.50;;
64291;SDS011;50628;51.008;13.658;2022-07-23T08:00:30;5.68;;;5.18;;
64291;SDS011;50628;51.008;13.658;2022-07-23T08:05:33;5.43;;;4.15;;
64291;SDS011;50628;51.008;13.658;2022-07-23T08:10:34;7.20;;;4.85;;
64291;SDS011;50628;51.008;13.658;2022-07-23T08:15:38;7.50;;;5.65;;
64291;SDS011;50628;51.008;13.658;2022-07-23T08:20:40;6.75;;;4.90;;
64291;SDS011;50628;51.008;13.658;2022-07-23T08:25:42;5.57;;;4.72;;
64291;SDS011;50628;51.008;13.658;2022-07-23T08:30:45;8.55;;;5.47;;
64291;SDS011;50628;51.008;13.658;2022-07-23T08:35:48;4.85;;;4.45;;
64291;SDS011;50628;51.008;13.658;2022-07-23T08:40:53;4.75;;;4.32;;
64291;SDS011;50628;51.008;13.658;2022-07-23T08:45:59;5.65;;;4.13;;
64291;SDS011;50628;51.008;13.658;2022-07-23T08:51:02;6.55;;;4.82;;
64291;SDS011;50628;51.008;13.658;2022-07-23T08:56:05;6.25;;;4.32;;
64291;SDS011;50628;51.008;13.658;2022-07-23T09:01:08;6.65;;;4.10;;
64291;SDS011;50628;51.008;13.658;2022-07-23T09:06:10;7.10;;;4.15;;
64291;SDS011;50628;51.008;13.658;2022-07-23T09:11:13;7.03;;;4.68;;
64291;SDS011;50628;51.008;13.658;2022-07-23T09:16:19;4.68;;;4.28;;
64291;SDS011;50628;51.008;13.658;2022-07-23T09:21:25;5.13;;;4.45;;
64291;SDS011;50628;51.008;13.658;2022-07-23T09:26:33;5.38;;;4.03;;
64291;SDS011;50628;51.008;13.658;2022-07-23T09:31:47;7.38;;;4.55;;
64291;SDS011;50628;51.008;13.658;2022-07-23T09:36:51;6.40;;;4.15;;
64291;SDS011;50628;51.008;13.658;2022-07-23T09:41:54;5.95;;;4.50;;
64291;SDS011;50628;51.008;13.658;2022-07-23T09:46:59;4.78;;;4.38;;
64291;SDS011;50628;51.008;13.658;2022-07-23T09:52:02;5.45;;;4.80;;
64291;SDS011;50628;51.008;13.658;2022-07-23T09:57:05;5.53;;;4.05;;
64291;SDS011;50628;51.008;13.658;2022-07-23T10:02:11;11.77;;;5.55;;
64291;SDS011;50628;51.008;13.658;2022-07-23T10:07:36;5.45;;;4.38;;
64291;SDS011;50628;51.008;13.658;2022-07-23T10:13:14;5.38;;;3.85;;
64291;SDS011;50628;51.008;13.658;2022-07-23T10:18:45;7.53;;;4.63;;
64291;SDS011;50628;51.008;13.658;2022-07-23T10:23:51;5.85;;;4.40;;
64291;SDS011;50628;51.008;13.658;2022-07-23T10:29:05;5.85;;;4.15;;
64291;SDS011;50628;51.008;13.658;2022-07-23T10:34:17;8.20;;;4.40;;
64291;SDS011;50628;51.008;13.658;2022-07-23T10:39:24;6.15;;;3.85;;
64291;SDS011;50628;51.008;13.658;2022-07-23T10:44:32;7.97;;;4.43;;
64291;SDS011;50628;51.008;13.658;2022-07-23T10:49:42;8.10;;;4.53;;
64291;SDS011;50628;51.008;13.658;2022-07-23T10:54:45;8.65;;;5.10;;
64291;SDS011;50628;51.008;13.658;2022-07-23T11:05:40;7.25;;;4.78;;
64291;SDS011;50628;51.008;13.658;2022-07-23T11:10:44;9.13;;;4.43;;
64291;SDS011;50628;51.008;13.658;2022-07-23T11:16:03;6.15;;;4.75;;
64291;SDS011;50628;51.008;13.658;2022-07-23T11:26:54;6.57;;;4.18;;
64291;SDS011;50628;51.008;13.658;2022-07-23T11:31:58;6.13;;;4.32;;
64291;SDS011;50628;51.008;13.658;2022-07-23T11:37:05;5.47;;;4.13;;
64291;SDS011;50628;51.008;13.658;2022-07-23T11:42:09;5.35;;;3.60;;
64291;SDS011;50628;51.008;13.658;2022-07-23T11:47:11;3.55;;;3.33;;
64291;SDS011;50628;51.008;13.658;2022-07-23T11:52:14;5.13;;;3.33;;
64291;SDS011;50628;51.008;13.658;2022-07-23T11:57:18;7.95;;;3.72;;
64291;SDS011;50628;51.008;13.658;2022-07-23T12:02:21;4.72;;;3.70;;
64291;SDS011;50628;51.008;13.658;2022-07-23T12:07:27;8.30;;;3.95;;
64291;SDS011;50628;51.008;13.658;2022-07-23T12:12:39;5.00;;;4.35;;
64291;SDS011;50628;51.008;13.658;2022-07-23T12:17:43;10.70;;;4.65;;
64291;SDS011;50628;51.008;13.658;2022-07-23T12:22:48;10.00;;;5.00;;
64291;SDS011;50628;51.008;13.658;2022-07-23T12:27:59;7.90;;;5.50;;
64291;SDS011;50628;51.008;13.658;2022-07-23T12:33:03;8.20;;;4.47;;
64291;SDS011;50628;51.008;13.658;2022-07-23T12:38:07;6.20;;;5.28;;
64291;SDS011;50628;51.008;13.658;2022-07-23T12:43:17;9.73;;;5.82;;
64291;SDS011;50628;51.008;13.658;2022-07-23T12:48:22;5.18;;;4.60;;
64291;SDS011;50628;51.008;13.658;2022-07-23T12:53:26;7.72;;;4.47;;
64291;SDS011;50628;51.008;13.658;2022-07-23T12:58:41;5.93;;;4.88;;
64291;SDS011;50628;51.008;13.658;2022-07-23T13:03:44;15.38;;;5.22;;
64291;SDS011;50628;51.008;13.658;2022-07-23T13:08:57;6.53;;;4.93;;
64291;SDS011;50628;51.008;13.658;2022-07-23T13:14:00;6.03;;;4.68;;
64291;SDS011;50628;51.008;13.658;2022-07-23T13:19:03;8.32;;;5.90;;
64291;SDS011;50628;51.008;13.658;2022-07-23T13:24:05;13.32;;;5.95;;
64291;SDS011;50628;51.008;13.658;2022-07-23T13:29:08;7.30;;;6.00;;
64291;SDS011;50628;51.008;13.658;2022-07-23T13:34:10;5.90;;;5.35;;
64291;SDS011;50628;51.008;13.658;2022-07-23T13:39:12;7.22;;;5.95;;
64291;SDS011;50628;51.008;13.658;2022-07-23T13:44:15;8.40;;;6.18;;
64291;SDS011;50628;51.008;13.658;2022-07-23T13:49:17;7.22;;;6.18;;
64291;SDS011;50628;51.008;13.658;2022-07-23T13:54:19;7.10;;;5.45;;
64291;SDS011;50628;51.008;13.658;2022-07-23T13:59:22;7.72;;;5.85;;
64291;SDS011;50628;51.008;13.658;2022-07-23T14:04:23;6.25;;;5.50;;
64291;SDS011;50628;51.008;13.658;2022-07-23T14:09:25;6.00;;;5.43;;
64291;SDS011;50628;51.008;13.658;2022-07-23T14:14:29;6.75;;;6.00;;
64291;SDS011;50628;51.008;13.658;2022-07-23T14:19:34;5.95;;;5.35;;
64291;SDS011;50628;51.008;13.658;2022-07-23T14:24:36;9.63;;;5.43;;
64291;SDS011;50628;51.008;13.658;2022-07-23T14:29:41;7.07;;;5.22;;
64291;SDS011;50628;51.008;13.658;2022-07-23T14:34:43;6.80;;;4.60;;
64291;SDS011;50628;51.008;13.658;2022-07-23T14:39:45;5.65;;;5.10;;
64291;SDS011;50628;51.008;13.658;2022-07-23T14:44:48;8.43;;;4.95;;
64291;SDS011;50628;51.008;13.658;2022-07-23T14:49:50;9.20;;;5.18;;
64291;SDS011;50628;51.008;13.658;2022-07-23T14:54:52;5.50;;;5.03;;
64291;SDS011;50628;51.008;13.658;2022-07-23T14:59:57;6.28;;;5.68;;
64291;SDS011;50628;51.008;13.658;2022-07-23T15:04:59;6.28;;;5.15;;
64291;SDS011;50628;51.008;13.658;2022-07-23T15:10:03;7.38;;;5.55;;
64291;SDS011;50628;51.008;13.658;2022-07-23T15:15:13;7.90;;;5.63;;
64291;SDS011;50628;51.008;13.658;2022-07-23T15:20:15;6.22;;;5.63;;
64291;SDS011;50628;51.008;13.658;2022-07-23T15:25:17;7.32;;;6.45;;
64291;SDS011;50628;51.008;13.658;2022-07-23T15:30:20;8.48;;;6.15;;
64291;SDS011;50628;51.008;13.658;2022-07-23T15:35:22;7.43;;;6.28;;
64291;SDS011;50628;51.008;13.658;2022-07-23T15:40:24;8.27;;;5.95;;
64291;SDS011;50628;51.008;13.658;2022-07-23T15:45:31;8.55;;;7.78;;
64291;SDS011;50628;51.008;13.658;2022-07-23T15:50:33;11.02;;;8.32;;
64291;SDS011;50628;51.008;13.658;2022-07-23T15:55:35;8.75;;;7.88;;
64291;SDS011;50628;51.008;13.658;2022-07-23T16:00:50;8.98;;;7.45;;
64291;SDS011;50628;51.008;13.658;2022-07-23T16:05:56;9.60;;;8.60;;
64291;SDS011;50628;51.008;13.658;2022-07-23T16:11:02;8.98;;;8.10;;
64291;SDS011;50628;51.008;13.658;2022-07-23T16:16:13;11.10;;;9.90;;
64291;SDS011;50628;51.008;13.658;2022-07-23T16:21:26;12.15;;;9.77;;
64291;SDS011;50628;51.008;13.658;2022-07-23T16:26:42;11.45;;;10.13;;
64291;SDS011;50628;51.008;13.658;2022-07-23T16:31:45;10.02;;;8.93;;
64291;SDS011;50628;51.008;13.658;2022-07-23T16:36:51;11.20;;;10.10;;
64291;SDS011;50628;51.008;13.658;2022-07-23T16:41:53;10.52;;;8.98;;
64291;SDS011;50628;51.008;13.658;2022-07-23T16:47:00;10.80;;;9.23;;
64291;SDS011;50628;51.008;13.658;2022-07-23T16:52:05;10.23;;;9.05;;
64291;SDS011;50628;51.008;13.658;2022-07-23T16:57:07;12.32;;;9.07;;
64291;SDS011;50628;51.008;13.658;2022-07-23T17:02:10;14.48;;;9.73;;
64291;SDS011;50628;51.008;13.658;2022-07-23T17:07:12;10.68;;;9.63;;
64291;SDS011;50628;51.008;13.658;2022-07-23T17:12:16;8.35;;;7.55;;
64291;SDS011;50628;51.008;13.658;2022-07-23T17:17:19;8.65;;;7.78;;
64291;SDS011;50628;51.008;13.658;2022-07-23T17:22:21;9.13;;;8.23;;
64291;SDS011;50628;51.008;13.658;2022-07-23T17:27:22;9.88;;;7.90;;
64291;SDS011;50628;51.008;13.658;2022-07-23T17:32:26;8.77;;;6.65;;
64291;SDS011;50628;51.008;13.658;2022-07-23T17:37:28;8.30;;;6.75;;
64291;SDS011;50628;51.008;13.658;2022-07-23T17:42:30;10.55;;;7.00;;
64291;SDS011;50628;51.008;13.658;2022-07-23T17:47:34;9.27;;;6.28;;
64291;SDS011;50628;51.008;13.658;2022-07-23T17:52:42;8.25;;;7.10;;
64291;SDS011;50628;51.008;13.658;2022-07-23T17:57:45;7.50;;;6.72;;
64291;SDS011;50628;51.008;13.658;2022-07-23T18:02:48;7.25;;;6.22;;
64291;SDS011;50628;51.008;13.658;2022-07-23T18:07:50;7.03;;;6.15;;
64291;SDS011;50628;51.008;13.658;2022-07-23T18:12:52;6.43;;;5.78;;
64291;SDS011;50628;51.008;13.658;2022-07-23T18:17:55;7.28;;;5.63;;
64291;SDS011;50628;51.008;13.658;2022-07-23T18:22:57;7.13;;;5.93;;
64291;SDS011;50628;51.008;13.658;2022-07-23T18:27:59;6.45;;;5.65;;
64291;SDS011;50628;51.008;13.658;2022-07-23T18:33:02;6.75;;;5.53;;
64291;SDS011;50628;51.008;13.658;2022-07-23T18:38:04;8.05;;;6.68;;
64291;SDS011;50628;51.008;13.658;2022-07-23T18:43:06;7.40;;;5.95;;
64291;SDS011;50628;51.008;13.658;2022-07-23T18:48:11;7.07;;;6.03;;
64291;SDS011;50628;51.008;13.658;2022-07-23T18:53:14;6.88;;;5.53;;
64291;SDS011;50628;51.008;13.658;2022-07-23T18:58:16;6.18;;;5.68;;
64291;SDS011;50628;51.008;13.658;2022-07-23T19:03:19;7.25;;;6.18;;
64291;SDS011;50628;51.008;13.658;2022-07-23T19:08:21;7.20;;;6.53;;
64291;SDS011;50628;51.008;13.658;2022-07-23T19:13:23;7.45;;;6.30;;
64291;SDS011;50628;51.008;13.658;2022-07-23T19:18:26;7.50;;;6.72;;
64291;SDS011;50628;51.008;13.658;2022-07-23T19:23:28;10.57;;;7.40;;
64291;SDS011;50628;51.008;13.658;2022-07-23T19:28:29;8.23;;;6.93;;
64291;SDS011;50628;51.008;13.658;2022-07-23T19:33:32;7.70;;;6.95;;
64291;SDS011;50628;51.008;13.658;2022-07-23T19:38:34;8.65;;;6.95;;
64291;SDS011;50628;51.008;13.658;2022-07-23T19:43:36;9.23;;;6.95;;
64291;SDS011;50628;51.008;13.658;2022-07-23T19:48:39;8.27;;;7.47;;
64291;SDS011;50628;51.008;13.658;2022-07-23T19:53:41;10.43;;;8.82;;
64291;SDS011;50628;51.008;13.658;2022-07-23T19:58:43;11.05;;;9.50;;
64291;SDS011;50628;51.008;13.658;2022-07-23T20:03:46;11.50;;;8.30;;
64291;SDS011;50628;51.008;13.658;2022-07-23T20:08:49;10.40;;;7.60;;
64291;SDS011;50628;51.008;13.658;2022-07-23T20:13:51;9.75;;;8.27;;
64291;SDS011;50628;51.008;13.658;2022-07-23T20:18:54;9.82;;;7.70;;
64291;SDS011;50628;51.008;13.658;2022-07-23T20:23:56;9.90;;;7.72;;
64291;SDS011;50628;51.008;13.658;2022-07-23T20:28:57;9.95;;;7.70;;
64291;SDS011;50628;51.008;13.658;2022-07-23T20:34:00;10.48;;;9.18;;
64291;SDS011;50628;51.008;13.658;2022-07-23T20:39:03;11.30;;;8.07;;
64291;SDS011;50628;51.008;13.658;2022-07-23T20:44:07;13.20;;;9.18;;
64291;SDS011;50628;51.008;13.658;2022-07-23T20:49:12;11.65;;;8.68;;
64291;SDS011;50628;51.008;13.658;2022-07-23T20:54:17;10.75;;;8.60;;
64291;SDS011;50628;51.008;13.658;2022-07-23T20:59:19;10.98;;;9.70;;
64291;SDS011;50628;51.008;13.658;2022-07-23T21:04:22;10.10;;;9.18;;
64291;SDS011;50628;51.008;13.658;2022-07-23T21:09:24;12.23;;;9.18;;
64291;SDS011;50628;51.008;13.658;2022-07-23T21:14:26;11.23;;;9.75;;
64291;SDS011;50628;51.008;13.658;2022-07-23T21:19:29;10.07;;;9.07;;
64291;SDS011;50628;51.008;13.658;2022-07-23T21:24:31;10.73;;;9.63;;
64291;SDS011;50628;51.008;13.658;2022-07-23T21:29:32;15.13;;;9.50;;
64291;SDS011;50628;51.008;13.658;2022-07-23T21:34:36;11.27;;;10.23;;
64291;SDS011;50628;51.008;13.658;2022-07-23T21:39:37;11.70;;;10.50;;
64291;SDS011;50628;51.008;13.658;2022-07-23T21:44:39;12.57;;;11.35;;
64291;SDS011;50628;51.008;13.658;2022-07-23T21:49:42;13.38;;;11.68;;
64291;SDS011;50628;51.008;13.658;2022-07-23T21:54:44;13.30;;;11.85;;
64291;SDS011;50628;51.008;13.658;2022-07-23T21:59:46;15.07;;;12.15;;
64291;SDS011;50628;51.008;13.658;2022-07-23T22:04:51;13.77;;;12.05;;
64291;SDS011;50628;51.008;13.658;2022-07-23T22:09:52;14.75;;;12.52;;
64291;SDS011;50628;51.008;13.658;2022-07-23T22:14:54;13.35;;;12.00;;
64291;SDS011;50628;51.008;13.658;2022-07-23T22:19:57;13.60;;;12.18;;
64291;SDS011;50628;51.008;13.658;2022-07-23T22:24:59;12.75;;;11.52;;
64291;SDS011;50628;51.008;13.658;2022-07-23T22:30:01;13.55;;;11.68;;
64291;SDS011;50628;51.008;13.658;2022-07-23T22:35:05;14.40;;;11.45;;
64291;SDS011;50628;51.008;13.658;2022-07-23T22:40:09;13.73;;;11.95;;
64291;SDS011;50628;51.008;13.658;2022-07-23T22:45:12;12.52;;;10.75;;
64291;SDS011;50628;51.008;13.658;2022-07-23T22:50:15;12.73;;;10.55;;
64291;SDS011;50628;51.008;13.658;2022-07-23T22:55:17;12.77;;;11.48;;
64291;SDS011;50628;51.008;13.658;2022-07-23T23:00:19;14.07;;;12.68;;
64291;SDS011;50628;51.008;13.658;2022-07-23T23:05:22;13.00;;;11.63;;
64291;SDS011;50628;51.008;13.658;2022-07-23T23:10:24;17.52;;;11.98;;
64291;SDS011;50628;51.008;13.658;2022-07-23T23:15:26;13.88;;;12.55;;
64291;SDS011;50628;51.008;13.658;2022-07-23T23:20:29;12.60;;;11.43;;
64291;SDS011;50628;51.008;13.658;2022-07-23T23:25:31;12.98;;;11.63;;
64291;SDS011;50628;51.008;13.658;2022-07-23T23:30:33;13.13;;;10.90;;
64291;SDS011;50628;51.008;13.658;2022-07-23T23:35:36;18.35;;;12.18;;
64291;SDS011;50628;51.008;13.658;2022-07-23T23:40:38;14.80;;;11.13;;
64291;SDS011;50628;51.008;13.658;2022-07-23T23:45:40;14.27;;;12.00;;
64291;SDS011;50628;51.008;13.658;2022-07-23T23:50:43;14.52;;;12.10;;
64291;SDS011;50628;51.008;13.658;2022-07-23T23:55:44;13.90;;;12.60;;
